createdAt,value
2022-11-05T00:01:08.808Z,45.50
2022-11-05T00:03:55.539Z,50.10
2022-11-05T00:06:42.743Z,49.70
2022-11-05T00:09:43.640Z,45.60
2022-11-05T00:12:32.981Z,44.60
2022-11-05T00:15:19.482Z,45.70
2022-11-05T00:17:47.495Z,45.20
2022-11-05T00:20:15.787Z,45.50
2022-11-05T00:23:02.437Z,44.30
2022-11-05T00:25:31.259Z,45.00
2022-11-05T00:28:03.230Z,44.90
2022-11-05T00:30:31.200Z,42.70
2022-11-05T00:33:04.797Z,41.20
2022-11-05T00:35:32.747Z,42.20
2022-11-05T00:38:00.818Z,41.70
2022-11-05T00:40:28.944Z,39.50
2022-11-05T00:43:15.560Z,39.20
2022-11-05T00:45:43.559Z,39.90
2022-11-05T00:48:30.092Z,41.30
2022-11-05T00:50:58.113Z,44.50
2022-11-05T00:53:26.084Z,45.60
2022-11-05T00:55:54.647Z,45.10
2022-11-05T00:58:23.086Z,43.20
2022-11-05T01:00:53.451Z,44.10
2022-11-05T01:03:25.149Z,43.00
2022-11-05T01:05:58.797Z,44.20
2022-11-05T01:08:28.044Z,47.00
2022-11-05T01:10:58.761Z,42.50
2022-11-05T01:13:30.301Z,39.30
2022-11-05T01:15:58.284Z,40.50
2022-11-05T01:18:26.296Z,41.20
2022-11-05T01:20:54.270Z,39.60
2022-11-05T01:23:22.382Z,38.10
2022-11-05T01:25:50.304Z,37.40
2022-11-05T01:28:18.344Z,37.20
2022-11-05T01:30:46.359Z,35.80
2022-11-05T01:33:14.698Z,37.20
2022-11-05T01:35:42.657Z,38.30
2022-11-05T01:38:11.152Z,39.30
2022-11-05T01:40:42.901Z,39.20
2022-11-05T01:43:17.251Z,39.20
2022-11-05T01:45:49.636Z,40.70
2022-11-05T01:48:30.129Z,38.10
2022-11-05T01:51:05.408Z,38.20
2022-11-05T01:53:47.672Z,38.30
2022-11-05T01:56:29.005Z,36.50
2022-11-05T01:59:05.571Z,35.50
2022-11-05T02:01:33.860Z,35.80
2022-11-05T02:04:05.172Z,35.50
2022-11-05T02:06:37.439Z,33.30
2022-11-05T02:09:11.434Z,36.00
2022-11-05T02:11:39.446Z,33.60
2022-11-05T02:14:07.479Z,32.80
2022-11-05T02:17:06.298Z,34.00
2022-11-05T02:20:11.831Z,31.90
2022-11-05T02:22:42.881Z,34.40
2022-11-05T02:25:29.531Z,33.30
2022-11-05T02:28:25.048Z,35.30
2022-11-05T02:31:05.168Z,34.70
2022-11-05T02:33:36.043Z,34.60
2022-11-05T02:36:14.349Z,36.30
2022-11-05T02:39:00.739Z,35.70
2022-11-05T02:41:36.213Z,37.50
2022-11-05T02:44:14.477Z,35.70
2022-11-05T02:46:54.717Z,34.50
2022-11-05T02:49:35.272Z,37.80
2022-11-05T02:52:08.695Z,38.00
2022-11-05T02:54:39.842Z,38.10
2022-11-05T02:57:07.785Z,37.80
2022-11-05T02:59:35.760Z,36.40
2022-11-05T03:02:05.284Z,35.40
2022-11-05T03:04:33.478Z,35.30
2022-11-05T03:07:01.450Z,34.10
2022-11-05T03:10:07.375Z,35.30
2022-11-05T03:12:38.266Z,35.50
2022-11-05T03:15:24.705Z,36.10
2022-11-05T03:17:58.532Z,35.40
2022-11-05T03:20:37.395Z,37.50
2022-11-05T03:23:23.793Z,36.60
2022-11-05T03:25:59.283Z,38.60
2022-11-05T03:28:32.393Z,41.40
2022-11-05T03:31:04.043Z,40.20
2022-11-05T03:33:35.452Z,41.10
2022-11-05T03:36:16.891Z,43.80
2022-11-05T03:38:48.071Z,45.80
2022-11-05T03:41:17.812Z,49.80
2022-11-05T03:43:50.579Z,51.90
2022-11-05T03:46:24.420Z,50.90
2022-11-05T03:48:55.908Z,48.90
2022-11-05T03:51:46.191Z,47.20
2022-11-05T03:54:14.744Z,47.00
2022-11-05T03:57:09.407Z,48.10
2022-11-05T03:59:46.385Z,47.30
2022-11-05T04:02:16.901Z,50.10
2022-11-05T04:04:45.393Z,51.50
2022-11-05T04:07:32.229Z,50.50
2022-11-05T04:10:18.929Z,49.20
2022-11-05T04:13:05.289Z,49.10
2022-11-05T04:15:53.783Z,46.70
2022-11-05T04:18:22.398Z,44.80
2022-11-05T04:21:09.536Z,45.30
2022-11-05T04:23:55.953Z,44.60
2022-11-05T04:26:23.890Z,46.60
2022-11-05T04:29:11.943Z,43.50
2022-11-05T04:31:40.081Z,46.00
2022-11-05T04:34:08.802Z,42.80
2022-11-05T04:36:36.736Z,41.10
2022-11-05T04:39:04.689Z,42.20
2022-11-05T04:41:32.626Z,40.80
2022-11-05T04:44:00.627Z,45.30
2022-11-05T04:46:28.541Z,46.80
2022-11-05T04:48:56.477Z,46.50
2022-11-05T04:51:24.549Z,47.20
2022-11-05T04:53:52.423Z,48.70
2022-11-05T04:56:23.182Z,49.60
2022-11-05T04:58:51.775Z,47.60
2022-11-05T05:01:22.490Z,46.50
2022-11-05T05:03:51.810Z,44.10
2022-11-05T05:06:21.186Z,43.70
2022-11-05T05:08:50.814Z,44.00
2022-11-05T05:11:21.349Z,41.20
2022-11-05T05:13:49.454Z,43.60
2022-11-05T05:16:26.277Z,45.20
2022-11-05T05:18:54.600Z,45.20
2022-11-05T05:21:41.815Z,45.90
2022-11-05T05:24:21.243Z,46.90
2022-11-05T05:26:51.221Z,45.60
2022-11-05T05:29:19.240Z,47.30
2022-11-05T05:31:47.210Z,45.00
2022-11-05T05:34:15.269Z,40.30
2022-11-05T05:36:43.480Z,41.80
2022-11-05T05:39:11.554Z,41.30
2022-11-05T05:41:39.578Z,40.50
2022-11-05T05:44:07.549Z,42.90
2022-11-05T05:46:35.508Z,40.10
2022-11-05T05:49:09.427Z,38.90
2022-11-05T05:51:40.349Z,36.80
2022-11-05T05:54:08.333Z,35.60
2022-11-05T05:56:36.283Z,34.20
2022-11-05T05:59:05.968Z,33.90
2022-11-05T06:01:34.168Z,34.70
2022-11-05T06:04:02.597Z,35.50
2022-11-05T06:06:30.897Z,35.00
2022-11-05T06:08:58.775Z,34.20
2022-11-05T06:11:27.500Z,33.20
2022-11-05T06:13:55.519Z,32.70
2022-11-05T06:16:23.673Z,31.30
2022-11-05T06:18:51.669Z,30.10
2022-11-05T06:21:19.680Z,30.40
2022-11-05T06:23:49.169Z,29.80
2022-11-05T06:26:18.308Z,31.60
2022-11-05T06:28:47.084Z,31.80
2022-11-05T06:31:15.722Z,31.50
2022-11-05T06:33:44.006Z,29.30
2022-11-05T06:36:15.693Z,28.60
2022-11-05T06:38:43.849Z,28.60
2022-11-05T06:41:11.803Z,28.00
2022-11-05T06:43:40.103Z,28.80
2022-11-05T06:46:09.696Z,30.30
2022-11-05T06:48:38.100Z,31.00
2022-11-05T06:51:08.079Z,31.90
2022-11-05T06:53:36.618Z,31.40
2022-11-05T06:56:06.109Z,31.60
2022-11-05T06:58:34.640Z,30.70
2022-11-05T07:01:09.034Z,30.60
2022-11-05T07:03:38.071Z,32.00
2022-11-05T07:06:07.408Z,31.60
2022-11-05T07:08:37.671Z,33.20
2022-11-05T07:11:06.149Z,33.10
2022-11-05T07:13:34.179Z,34.00
2022-11-05T07:16:02.216Z,34.20
2022-11-05T07:18:30.245Z,33.80
2022-11-05T07:21:00.457Z,33.10
2022-11-05T07:23:28.546Z,32.50
2022-11-05T07:25:56.620Z,33.10
2022-11-05T07:28:24.520Z,34.70
2022-11-05T07:30:52.428Z,33.30
2022-11-05T07:33:20.555Z,33.90
2022-11-05T07:35:48.500Z,32.30
2022-11-05T07:38:17.129Z,34.20
2022-11-05T07:40:45.221Z,32.30
2022-11-05T07:43:13.481Z,35.30
2022-11-05T07:45:41.893Z,31.30
2022-11-05T07:48:09.962Z,32.10
2022-11-05T07:50:38.246Z,30.60
2022-11-05T07:53:10.784Z,35.00
2022-11-05T07:55:41.350Z,37.70
2022-11-05T07:58:11.133Z,31.60
2022-11-05T08:00:39.721Z,38.50
2022-11-05T08:03:13.507Z,34.90
2022-11-05T08:05:47.425Z,33.90
2022-11-05T08:08:39.231Z,34.10
2022-11-05T08:11:10.876Z,33.50
2022-11-05T08:13:39.228Z,31.60
2022-11-05T08:16:08.260Z,31.50
2022-11-05T08:18:36.536Z,31.60
2022-11-05T08:21:05.900Z,32.10
2022-11-05T08:23:34.005Z,31.90
2022-11-05T08:26:04.015Z,28.80
2022-11-05T08:28:32.450Z,29.70
2022-11-05T08:31:00.379Z,27.70
2022-11-05T08:33:31.442Z,27.30
2022-11-05T08:36:02.960Z,26.50
2022-11-05T08:38:31.040Z,25.30
2022-11-05T08:40:59.125Z,24.40
2022-11-05T08:43:28.501Z,24.10
2022-11-05T08:45:57.386Z,24.70
2022-11-05T08:48:25.559Z,24.10
2022-11-05T08:50:53.707Z,24.70
2022-11-05T08:53:21.807Z,24.50
2022-11-05T08:55:51.567Z,24.70
2022-11-05T08:58:20.821Z,22.80
2022-11-05T09:00:50.144Z,22.70
2022-11-05T09:03:19.114Z,21.60
2022-11-05T09:05:47.275Z,24.00
2022-11-05T09:08:18.194Z,21.80
2022-11-05T09:10:47.480Z,21.30
2022-11-05T09:13:19.724Z,21.80
2022-11-05T09:15:51.662Z,19.70
2022-11-05T09:18:20.327Z,20.50
2022-11-05T09:20:48.944Z,20.20
2022-11-05T09:23:17.593Z,20.20
2022-11-05T09:25:46.381Z,18.70
2022-11-05T09:28:18.064Z,19.70
2022-11-05T09:30:48.272Z,19.60
2022-11-05T09:33:18.487Z,18.70
2022-11-05T09:35:46.793Z,20.70
2022-11-05T09:38:15.110Z,20.30
2022-11-05T09:40:55.979Z,20.70
2022-11-05T09:43:31.980Z,21.90
2022-11-05T09:46:08.476Z,22.60
2022-11-05T09:48:39.289Z,23.10
2022-11-05T09:51:07.712Z,23.40
2022-11-05T09:53:40.066Z,21.90
2022-11-05T09:56:20.683Z,22.80
2022-11-05T09:58:54.836Z,22.80
2022-11-05T10:01:31.078Z,20.70
2022-11-05T10:04:02.784Z,20.30
2022-11-05T10:06:31.066Z,19.00
2022-11-05T10:09:15.071Z,19.10
2022-11-05T10:12:15.813Z,20.40
2022-11-05T10:14:50.347Z,20.80
2022-11-05T10:17:24.439Z,21.20
2022-11-05T10:20:23.785Z,23.00
2022-11-05T10:22:58.602Z,22.80
2022-11-05T10:25:32.388Z,20.50
2022-11-05T10:28:01.461Z,20.50
2022-11-05T10:30:29.668Z,20.70
2022-11-05T10:33:01.477Z,21.40
2022-11-05T10:35:33.672Z,21.30
2022-11-05T10:38:02.107Z,21.40
2022-11-05T10:40:41.523Z,22.10
2022-11-05T10:43:18.734Z,21.50
2022-11-05T10:45:58.286Z,19.80
2022-11-05T10:48:35.283Z,20.40
2022-11-05T10:51:07.937Z,19.60
2022-11-05T10:53:39.205Z,25.70
2022-11-05T10:56:32.774Z,20.00
2022-11-05T10:59:06.708Z,18.40
2022-11-05T11:01:37.788Z,18.30
2022-11-05T11:04:17.537Z,18.90
2022-11-05T11:06:52.780Z,19.70
2022-11-05T11:12:01.961Z,18.50
2022-11-05T11:14:31.007Z,17.90
2022-11-05T11:17:24.894Z,17.10
2022-11-05T11:20:11.627Z,17.00
2022-11-05T11:22:39.559Z,17.80
2022-11-05T11:26:00.869Z,17.80
2022-11-05T11:28:34.646Z,17.60
2022-11-05T11:31:12.762Z,16.90
2022-11-05T11:33:46.502Z,17.20
2022-11-05T11:36:19.048Z,16.80
2022-11-05T11:38:47.316Z,17.40
2022-11-05T11:41:29.568Z,18.20
2022-11-05T11:44:08.831Z,18.50
2022-11-05T11:46:37.685Z,18.00
2022-11-05T11:49:07.064Z,18.60
2022-11-05T11:51:49.529Z,17.90
2022-11-05T11:54:20.943Z,18.60
2022-11-05T11:56:57.112Z,18.60
2022-11-05T11:59:47.204Z,18.30
2022-11-05T12:02:58.711Z,17.40
2022-11-05T12:06:08.170Z,19.60
2022-11-05T12:08:45.982Z,18.80
2022-11-05T12:11:15.037Z,19.70
2022-11-05T12:13:57.035Z,19.90
2022-11-05T12:16:50.036Z,19.30
2022-11-05T12:19:34.429Z,18.80
2022-11-05T12:22:33.302Z,17.10
2022-11-05T12:25:14.517Z,19.60
2022-11-05T12:28:22.991Z,17.80
2022-11-05T12:31:27.657Z,19.00
2022-11-05T12:34:04.626Z,17.70
2022-11-05T12:36:38.634Z,16.70
2022-11-05T12:39:37.351Z,16.10
2022-11-05T12:42:32.424Z,15.70
2022-11-05T12:45:07.692Z,15.60
2022-11-05T12:48:35.827Z,17.80
2022-11-05T12:51:13.870Z,17.90
2022-11-05T12:54:20.778Z,17.30
2022-11-05T12:56:56.883Z,16.80
2022-11-05T12:59:34.916Z,17.00
2022-11-05T13:02:27.056Z,18.20
2022-11-05T13:05:01.311Z,18.00
2022-11-05T13:07:40.706Z,17.60
2022-11-05T13:10:18.631Z,18.00
2022-11-05T13:13:00.624Z,17.50
2022-11-05T13:15:37.601Z,17.80
2022-11-05T13:18:14.489Z,17.00
2022-11-05T13:20:50.328Z,17.20
2022-11-05T13:23:41.638Z,17.70
2022-11-05T13:26:59.347Z,18.70
2022-11-05T13:30:02.647Z,17.80
2022-11-05T13:32:43.666Z,18.30
2022-11-05T13:35:26.253Z,19.10
2022-11-05T13:38:17.914Z,18.50
2022-11-05T13:41:01.636Z,19.30
2022-11-05T13:43:50.589Z,19.10
2022-11-05T13:46:40.530Z,20.20
2022-11-05T13:49:27.591Z,20.60
2022-11-05T13:51:55.583Z,20.30
2022-11-05T13:54:41.835Z,20.10
2022-11-05T13:57:16.281Z,19.10
2022-11-05T13:59:51.114Z,20.50
2022-11-05T14:02:23.982Z,21.20
2022-11-05T14:05:00.988Z,20.20
2022-11-05T14:07:44.097Z,20.20
2022-11-05T14:10:26.155Z,19.60
2022-11-05T14:12:56.933Z,21.20
2022-11-05T14:15:29.627Z,21.40
2022-11-05T14:18:31.096Z,20.50
2022-11-05T14:21:01.285Z,20.50
2022-11-05T14:23:41.451Z,20.70
2022-11-05T14:26:16.186Z,20.90
2022-11-05T14:28:47.166Z,22.70
2022-11-05T14:31:18.188Z,20.20
2022-11-05T14:34:01.516Z,24.10
2022-11-05T14:36:36.076Z,24.30
2022-11-05T14:39:19.659Z,23.10
2022-11-05T14:42:04.667Z,23.20
2022-11-05T14:44:35.734Z,22.40
2022-11-05T14:47:08.774Z,21.80
2022-11-05T14:49:47.859Z,21.70
2022-11-05T14:52:19.521Z,21.30
2022-11-05T14:54:50.779Z,22.20
2022-11-05T14:57:43.013Z,22.70
2022-11-05T15:00:29.804Z,22.40
2022-11-05T15:03:01.977Z,23.30
2022-11-05T15:05:48.473Z,23.50
2022-11-05T15:08:31.885Z,25.00
2022-11-05T15:11:12.825Z,26.20
2022-11-05T15:13:51.324Z,28.70
2022-11-05T15:16:42.868Z,26.60
2022-11-05T15:19:21.708Z,25.50
2022-11-05T15:21:51.298Z,27.00
2022-11-05T15:24:20.639Z,25.80
2022-11-05T15:27:27.886Z,27.70
2022-11-05T15:29:55.878Z,30.10
2022-11-05T15:32:26.855Z,26.50
2022-11-05T15:34:56.413Z,26.30
2022-11-05T15:37:27.216Z,28.60
2022-11-05T15:39:55.665Z,29.70
2022-11-05T15:42:25.455Z,27.40
2022-11-05T15:45:00.117Z,26.90
2022-11-05T15:47:30.815Z,31.00
2022-11-05T15:50:15.117Z,28.90
2022-11-05T15:52:51.767Z,27.70
2022-11-05T15:55:25.070Z,27.70
2022-11-05T15:58:00.149Z,29.50
2022-11-05T16:03:04.950Z,27.60
2022-11-05T16:05:35.692Z,28.30
2022-11-05T16:08:05.484Z,29.40
2022-11-05T16:10:38.633Z,30.30
2022-11-05T16:13:38.471Z,31.80
2022-11-05T16:16:24.715Z,31.50
2022-11-05T16:18:52.917Z,32.20
2022-11-05T16:21:23.261Z,31.00
2022-11-05T16:24:00.042Z,31.20
2022-11-05T16:29:29.520Z,30.40
2022-11-05T16:32:06.025Z,31.10
2022-11-05T16:34:49.165Z,32.60
2022-11-05T16:37:20.802Z,31.40
2022-11-05T16:39:49.703Z,31.10
2022-11-05T16:42:24.487Z,44.10
2022-11-05T16:44:58.195Z,39.30
2022-11-05T16:47:26.654Z,36.70
2022-11-05T16:49:55.023Z,35.10
2022-11-05T16:52:23.345Z,33.50
2022-11-05T16:54:51.664Z,34.20
2022-11-05T16:57:29.741Z,34.00
2022-11-05T17:00:00.164Z,31.10
2022-11-05T17:02:28.815Z,30.80
2022-11-05T17:04:57.553Z,31.00
2022-11-05T17:07:25.652Z,34.00
2022-11-05T17:09:55.989Z,31.40
2022-11-05T17:12:24.024Z,29.60
2022-11-05T17:14:52.764Z,30.60
2022-11-05T17:17:22.393Z,28.10
2022-11-05T17:19:50.544Z,27.60
2022-11-05T17:22:18.892Z,29.50
2022-11-05T17:24:47.490Z,30.30
2022-11-05T17:27:15.914Z,30.30
2022-11-05T17:29:43.887Z,31.70
2022-11-05T17:32:13.179Z,32.10
2022-11-05T17:34:42.234Z,33.00
2022-11-05T17:37:10.679Z,32.60
2022-11-05T17:39:38.680Z,33.40
2022-11-05T17:42:06.705Z,29.60
2022-11-05T17:44:40.213Z,29.80
2022-11-05T17:47:09.538Z,28.10
2022-11-05T17:49:37.910Z,28.50
2022-11-05T17:52:05.855Z,31.20
2022-11-05T17:54:33.948Z,30.00
2022-11-05T17:57:08.282Z,29.50
2022-11-05T17:59:36.220Z,28.00
2022-11-05T18:02:04.857Z,27.50
2022-11-05T18:04:33.478Z,27.80
2022-11-05T18:07:01.505Z,27.90
2022-11-05T18:09:29.527Z,29.30
2022-11-05T18:11:57.552Z,28.80
2022-11-05T18:14:25.772Z,31.40
2022-11-05T18:16:56.474Z,32.30
2022-11-05T18:19:24.460Z,33.50
2022-11-05T18:21:52.401Z,33.80
2022-11-05T18:24:23.189Z,33.10
2022-11-05T18:26:51.508Z,35.90
2022-11-05T18:29:20.056Z,38.80
2022-11-05T18:31:48.153Z,43.00
2022-11-05T18:34:17.309Z,43.50
2022-11-05T18:36:53.516Z,43.50
2022-11-05T18:39:26.192Z,43.80
2022-11-05T18:41:54.224Z,42.10
2022-11-05T18:44:23.055Z,42.80
2022-11-05T18:46:58.051Z,41.60
2022-11-05T18:49:27.438Z,42.10
2022-11-05T18:51:55.578Z,42.90
2022-11-05T18:54:23.529Z,42.50
2022-11-05T18:56:51.799Z,44.70
2022-11-05T18:59:38.701Z,44.60
2022-11-05T19:02:11.018Z,42.40
2022-11-05T19:04:50.587Z,43.70
2022-11-05T19:07:29.139Z,42.40
2022-11-05T19:09:57.164Z,41.30
2022-11-05T19:12:25.186Z,41.60
2022-11-05T19:14:56.673Z,41.60
2022-11-05T19:19:56.579Z,43.40
2022-11-05T19:22:26.361Z,43.30
2022-11-05T19:24:54.292Z,42.20
2022-11-05T19:27:23.279Z,45.50
2022-11-05T19:29:51.887Z,45.60
2022-11-05T19:32:21.352Z,47.50
2022-11-05T19:34:49.397Z,45.60
2022-11-05T19:37:17.561Z,46.40
2022-11-05T19:39:45.624Z,46.50
2022-11-05T19:42:13.807Z,45.90
2022-11-05T19:44:43.735Z,46.70
2022-11-05T19:47:11.979Z,50.00
2022-11-05T19:49:40.224Z,51.90
2022-11-05T19:52:08.744Z,57.80
2022-11-05T19:54:38.112Z,53.70
2022-11-05T19:57:06.664Z,53.20
2022-11-05T19:59:34.674Z,52.90
2022-11-05T20:02:02.769Z,49.10
2022-11-05T20:04:31.541Z,47.20
2022-11-05T20:06:59.594Z,46.00
2022-11-05T20:09:27.867Z,47.40
2022-11-05T20:11:56.778Z,48.80
2022-11-05T20:14:26.434Z,50.30
2022-11-05T20:16:54.532Z,49.00
2022-11-05T20:19:23.427Z,51.00
2022-11-05T20:21:52.180Z,51.30
2022-11-05T20:24:25.193Z,42.20
2022-11-05T20:26:56.076Z,37.60
2022-11-05T20:29:30.487Z,42.00
2022-11-05T20:32:04.228Z,34.50
2022-11-05T20:34:34.116Z,34.20
2022-11-05T20:37:02.420Z,35.70
2022-11-05T20:39:33.532Z,36.60
2022-11-05T20:42:01.551Z,38.50
2022-11-05T20:44:29.719Z,38.50
2022-11-05T20:46:57.670Z,42.20
2022-11-05T20:49:26.065Z,38.20
2022-11-05T20:51:55.043Z,37.80
2022-11-05T20:54:23.571Z,36.50
2022-11-05T20:56:55.330Z,36.90
2022-11-05T20:59:24.051Z,38.40
2022-11-05T21:01:52.696Z,40.80
2022-11-05T21:04:21.455Z,42.00
2022-11-05T21:06:49.508Z,43.60
2022-11-05T21:09:18.360Z,48.60
2022-11-05T21:12:05.508Z,46.60
2022-11-05T21:14:35.222Z,46.50
2022-11-05T21:17:04.042Z,46.00
2022-11-05T21:19:33.366Z,43.30
2022-11-05T21:22:02.784Z,44.20
2022-11-05T21:24:32.420Z,43.70
2022-11-05T21:27:00.923Z,41.90
2022-11-05T21:29:29.071Z,43.60
2022-11-05T21:31:57.035Z,46.60
2022-11-05T21:34:25.179Z,45.30
2022-11-05T21:36:53.331Z,48.30
2022-11-05T21:39:21.383Z,45.80
2022-11-05T21:41:49.336Z,45.90
2022-11-05T21:44:17.419Z,46.80
2022-11-05T21:46:45.350Z,45.90
2022-11-05T21:49:14.589Z,46.10
2022-11-05T21:52:00.785Z,43.20
2022-11-05T21:54:48.635Z,46.70
2022-11-05T21:57:37.007Z,48.60
2022-11-05T22:00:11.184Z,49.10
2022-11-05T22:02:39.406Z,51.10
2022-11-05T22:05:08.091Z,50.50
2022-11-05T22:07:38.102Z,53.00
2022-11-05T22:10:14.634Z,49.40
2022-11-05T22:12:44.782Z,50.30
2022-11-05T22:15:13.636Z,51.60
2022-11-05T22:17:46.588Z,52.50
2022-11-05T22:20:16.502Z,49.60
2022-11-05T22:22:44.986Z,51.10
2022-11-05T22:25:13.819Z,52.10
2022-11-05T22:27:43.708Z,51.60
2022-11-05T22:30:13.775Z,56.00
2022-11-05T22:32:41.921Z,55.00
2022-11-05T22:35:10.436Z,57.00
2022-11-05T22:37:38.829Z,57.20
2022-11-05T22:40:08.595Z,57.40
2022-11-05T22:42:36.627Z,54.90
2022-11-05T22:45:05.294Z,52.80
2022-11-05T22:47:33.225Z,55.50
2022-11-05T22:50:01.493Z,50.60
2022-11-05T22:52:29.443Z,50.90
2022-11-05T22:54:57.782Z,49.10
2022-11-05T22:57:25.876Z,48.20
2022-11-05T22:59:53.737Z,50.10
2022-11-05T23:02:21.825Z,47.30
2022-11-05T23:04:51.848Z,49.00
2022-11-05T23:07:38.467Z,50.10
2022-11-05T23:10:25.650Z,45.90
2022-11-05T23:12:55.536Z,44.80
2022-11-05T23:15:42.109Z,45.20
2022-11-05T23:18:28.971Z,44.00
2022-11-05T23:21:17.995Z,44.10
2022-11-05T23:24:05.292Z,41.60
2022-11-05T23:26:50.075Z,44.60
2022-11-05T23:29:23.593Z,47.60
2022-11-05T23:32:10.448Z,47.80
2022-11-05T23:34:38.870Z,43.10
2022-11-05T23:37:26.412Z,45.40
2022-11-05T23:39:55.628Z,43.20
2022-11-05T23:42:42.319Z,44.90
2022-11-05T23:45:29.371Z,40.60
2022-11-05T23:48:16.114Z,40.70
2022-11-05T23:50:57.159Z,42.40
2022-11-05T23:53:26.714Z,43.40
2022-11-05T23:56:03.216Z,44.90
2022-11-05T23:58:31.966Z,44.20
